Time;durP1;ratioP1;P1;durP2;ratioP2;P2;SDS_P1;SDS_P2;PMS_P1;PMS_P2;Temp;Humidity;BMP_temperature;BMP_pressure;BME280_temperature;BME280_humidity;BME280_pressure;Samples;Min_cycle;Max_cycle;Signal;HPM_P1;HPM_P2
2023/01/09 00:02:20;;;;;;;;;;;;;;;3.89;74.16;100255.53;5092554;28;19912;-42
2023/01/09 00:04:46;;;;;;;;;;;;;;;3.92;73.96;100258.69;5092601;28;20015;-42
2023/01/09 00:07:11;;;;;;;;;;;;;;;3.93;73.53;100243.72;5092959;28;19994;-42
2023/01/09 00:09:36;;;;;;;;;;;;;;;3.80;74.33;100243.22;5092658;28;19912;-42
2023/01/09 00:12:02;;;;;;;;;;;;;;;4.06;73.88;100252.09;5092722;28;20057;-42
2023/01/09 00:14:27;;;;;;;;;;;;;;;4.11;73.21;100244.56;5092569;28;19911;-42
2023/01/09 00:16:55;;;;;;;;;;;;;;;4.09;73.92;100243.03;5092834;28;19947;-43
2023/01/09 00:19:21;;;;;;;;;;;;;;;4.21;72.19;100244.50;5091873;28;19928;-42
2023/01/09 00:21:46;;;;;;;;;;;;;;;3.96;73.64;100240.78;5092275;28;19970;-41
2023/01/09 00:24:11;;;;;;;;;;;;;;;3.93;74.38;100235.81;5091843;28;19912;-42
2023/01/09 00:26:37;;;;;;;;;;;;;;;3.91;73.66;100238.59;5092552;28;19961;-42
2023/01/09 00:29:02;;;;;;;;;;;;;;;4.31;71.87;100245.25;5092168;28;19919;-42
2023/01/09 00:31:28;;;;;;;;;;;;;;;3.93;71.70;100225.28;5092161;28;20247;-41
2023/01/09 00:34:01;;;;;;;;;;;;;;;4.04;72.42;100242.69;5092091;28;19919;-42
2023/01/09 00:36:27;;;;;;;;;;;;;;;3.79;72.73;100246.84;5091912;28;19912;-42
2023/01/09 00:38:52;;;;;;;;;;;;;;;3.65;73.00;100240.25;5091995;28;20478;-41
2023/01/09 00:41:26;;;;;;;;;;;;;;;3.67;73.34;100240.94;5091629;28;19912;-42
2023/01/09 00:43:56;;;;;;;;;;;;;;;3.40;73.63;100234.69;5091803;28;19954;-42
2023/01/09 00:46:24;;;;;;;;;;;;;;;3.27;75.30;100234.19;5092461;28;20359;-43
2023/01/09 00:48:50;;;;;;;;;;;;;;;3.29;74.55;100227.84;5092886;28;19912;-42
2023/01/09 00:51:18;;;;;;;;;;;;;;;3.46;73.84;100223.59;5092235;28;19927;-42
2023/01/09 00:53:43;;;;;;;;;;;;;;;3.56;72.78;100225.34;5092262;28;19914;-43
2023/01/09 00:56:12;;;;;;;;;;;;;;;3.29;74.51;100219.94;5091895;28;20310;-42
2023/01/09 00:58:37;;;;;;;;;;;;;;;3.44;74.45;100224.72;5092222;28;20017;-42
2023/01/09 01:01:02;;;;;;;;;;;;;;;3.70;73.40;100222.22;5092056;28;20410;-43
2023/01/09 01:03:28;;;;;;;;;;;;;;;3.60;72.48;100221.44;5091394;28;19916;-42
2023/01/09 01:08:37;;;;;;;;;;;;;;;3.59;72.29;100219.78;5092455;28;19962;-42
2023/01/09 01:11:03;;;;;;;;;;;;;;;3.29;73.19;100219.09;5091987;28;19912;-42
2023/01/09 01:13:28;;;;;;;;;;;;;;;3.46;72.62;100217.50;5091925;28;19954;-42
2023/01/09 01:15:54;;;;;;;;;;;;;;;3.56;72.73;100212.19;5092011;28;19947;-42
2023/01/09 01:18:19;;;;;;;;;;;;;;;3.16;73.28;100202.81;5092094;28;19983;-43
2023/01/09 01:20:44;;;;;;;;;;;;;;;2.89;73.86;100207.88;5091809;28;19916;-42
2023/01/09 01:23:10;;;;;;;;;;;;;;;2.73;75.49;100202.38;5091416;28;20012;-42
2023/01/09 01:25:36;;;;;;;;;;;;;;;2.21;77.49;100200.09;5091387;28;20364;-42
2023/01/09 01:28:01;;;;;;;;;;;;;;;2.40;75.82;100198.41;5092105;28;19912;-42
2023/01/09 01:30:27;;;;;;;;;;;;;;;2.29;75.17;100194.97;5091526;28;19916;-42
2023/01/09 01:32:52;;;;;;;;;;;;;;;2.33;74.97;100191.09;5091602;28;19919;-42
2023/01/09 01:35:17;;;;;;;;;;;;;;;2.22;76.24;100196.47;5091491;28;19947;-42
2023/01/09 01:37:42;;;;;;;;;;;;;;;2.43;74.67;100193.69;5091450;28;19912;-42
2023/01/09 01:40:08;;;;;;;;;;;;;;;2.34;74.43;100184.88;5091369;28;20374;-43
2023/01/09 01:42:34;;;;;;;;;;;;;;;2.34;75.33;100178.78;5090686;28;19909;-44
2023/01/09 01:44:59;;;;;;;;;;;;;;;2.20;75.15;100174.78;5091548;28;20049;-43
2023/01/09 01:47:44;;;;;;;;;;;;;;;2.04;75.47;100180.59;5091708;28;19919;-42
2023/01/09 01:50:13;;;;;;;;;;;;;;;2.21;75.09;100173.81;5086744;28;19912;-42
2023/01/09 01:52:38;;;;;;;;;;;;;;;2.17;75.50;100171.59;5091473;28;19912;-43
2023/01/09 01:55:05;;;;;;;;;;;;;;;2.11;75.91;100167.72;5091282;28;19919;-43
2023/01/09 01:57:31;;;;;;;;;;;;;;;2.06;74.99;100160.28;5091271;28;20406;-43
2023/01/09 01:59:58;;;;;;;;;;;;;;;2.29;75.28;100163.44;5091000;28;19912;-43
2023/01/09 02:02:27;;;;;;;;;;;;;;;2.07;75.54;100156.66;5090604;28;20385;-43
2023/01/09 02:04:53;;;;;;;;;;;;;;;1.95;76.84;100169.09;5091011;28;19916;-42
2023/01/09 02:07:19;;;;;;;;;;;;;;;2.13;75.46;100165.78;5091290;28;19912;-43
2023/01/09 02:09:45;;;;;;;;;;;;;;;2.23;76.29;100158.75;5090161;28;19969;-43
2023/01/09 02:12:18;;;;;;;;;;;;;;;2.35;75.11;100152.38;5091118;28;20021;-43
2023/01/09 02:14:45;;;;;;;;;;;;;;;2.28;73.28;100150.44;5090941;28;19973;-43
2023/01/09 02:17:10;;;;;;;;;;;;;;;2.17;73.42;100147.97;5090915;28;19916;-42
2023/01/09 02:19:54;;;;;;;;;;;;;;;2.18;74.60;100150.44;5090583;28;19924;-42
2023/01/09 02:22:39;;;;;;;;;;;;;;;2.25;74.01;100146.31;5090349;28;19916;-42
2023/01/09 02:25:25;;;;;;;;;;;;;;;1.93;74.78;100139.53;5090629;28;19947;-43
2023/01/09 02:28:09;;;;;;;;;;;;;;;2.14;74.86;100144.66;5091168;28;20368;-42
2023/01/09 02:30:45;;;;;;;;;;;;;;;2.23;75.36;100148.25;5090626;28;19919;-43
2023/01/09 02:33:10;;;;;;;;;;;;;;;1.98;76.53;100138.28;5090353;28;19930;-43
2023/01/09 02:35:54;;;;;;;;;;;;;;;2.26;74.57;100140.06;5090057;28;19979;-42
2023/01/09 02:38:28;;;;;;;;;;;;;;;2.24;75.36;100134.13;5090351;28;19916;-43
2023/01/09 02:40:56;;;;;;;;;;;;;;;2.45;76.37;100120.81;5090064;28;20395;-43
2023/01/09 02:43:22;;;;;;;;;;;;;;;2.64;73.87;100121.75;5089452;28;19966;-42
2023/01/09 02:45:47;;;;;;;;;;;;;;;2.73;75.05;100119.09;5090041;28;19970;-42
2023/01/09 02:48:12;;;;;;;;;;;;;;;2.72;74.38;100122.72;5091076;28;20287;-42
2023/01/09 02:50:56;;;;;;;;;;;;;;;2.54;74.57;100119.16;5090616;28;19923;-42
2023/01/09 02:53:28;;;;;;;;;;;;;;;2.33;75.05;100117.53;5090263;28;19933;-43
2023/01/09 02:56:05;;;;;;;;;;;;;;;2.46;75.77;100116.41;5090569;28;19919;-42
2023/01/09 02:58:49;;;;;;;;;;;;;;;2.32;75.43;100125.56;5090346;28;20383;-42
2023/01/09 03:01:33;;;;;;;;;;;;;;;2.31;76.22;100118.66;5089702;28;19912;-43
2023/01/09 03:04:03;;;;;;;;;;;;;;;2.29;75.71;100116.16;5089848;28;20346;-43
2023/01/09 03:06:29;;;;;;;;;;;;;;;2.13;75.53;100118.53;5090313;28;19920;-41
2023/01/09 03:08:56;;;;;;;;;;;;;;;2.22;77.19;100122.13;5090462;28;20057;-42
2023/01/09 03:11:22;;;;;;;;;;;;;;;2.21;75.54;100129.19;5090323;28;20028;-42
2023/01/09 03:13:53;;;;;;;;;;;;;;;2.14;74.70;100128.06;5090184;28;19919;-43
2023/01/09 03:16:20;;;;;;;;;;;;;;;1.89;77.66;100121.59;5090142;28;19923;-42
2023/01/09 03:18:47;;;;;;;;;;;;;;;2.07;77.68;100125.16;5088774;28;19924;-43
2023/01/09 03:21:12;;;;;;;;;;;;;;;2.23;76.87;100119.38;5092664;28;19912;-43
2023/01/09 03:23:45;;;;;;;;;;;;;;;2.44;75.54;100116.56;5093925;28;20343;-43
2023/01/09 03:26:10;;;;;;;;;;;;;;;2.33;75.17;100121.97;5093902;28;19924;-42
2023/01/09 03:28:36;;;;;;;;;;;;;;;2.42;75.58;100113.25;5094080;28;19920;-43
2023/01/09 03:31:01;;;;;;;;;;;;;;;2.24;76.19;100121.00;5093877;28;19912;-43
2023/01/09 03:33:27;;;;;;;;;;;;;;;2.38;75.91;100118.91;5093959;28;20023;-42
2023/01/09 03:35:53;;;;;;;;;;;;;;;2.04;76.88;100119.38;5093795;28;19935;-42
2023/01/09 03:38:18;;;;;;;;;;;;;;;2.36;76.96;100108.53;5093826;28;20390;-43
2023/01/09 03:40:43;;;;;;;;;;;;;;;2.33;76.26;100122.78;5093163;28;20390;-43
2023/01/09 03:43:08;;;;;;;;;;;;;;;2.38;75.40;100126.78;5093644;28;20018;-43
2023/01/09 03:45:34;;;;;;;;;;;;;;;2.40;75.97;100133.56;5093234;28;19920;-42
2023/01/09 03:47:59;;;;;;;;;;;;;;;2.56;76.13;100117.22;5094127;28;19912;-42
2023/01/09 03:50:24;;;;;;;;;;;;;;;2.48;75.16;100115.28;5093583;28;19939;-42
2023/01/09 03:52:50;;;;;;;;;;;;;;;2.42;76.00;100117.66;5093444;28;20010;-43
2023/01/09 03:55:15;;;;;;;;;;;;;;;2.33;76.28;100114.09;5093164;28;19962;-42
2023/01/09 03:57:40;;;;;;;;;;;;;;;2.62;75.04;100111.38;5093136;28;19916;-42
2023/01/09 04:00:07;;;;;;;;;;;;;;;2.47;76.22;100118.88;5092617;28;19912;-43
2023/01/09 04:02:32;;;;;;;;;;;;;;;2.48;76.63;100119.72;5092647;28;19912;-43
2023/01/09 04:04:57;;;;;;;;;;;;;;;2.65;74.87;100112.91;5092601;28;19923;-43
2023/01/09 04:07:23;;;;;;;;;;;;;;;2.66;75.73;100115.38;5093453;28;20637;-42
2023/01/09 04:09:48;;;;;;;;;;;;;;;2.67;74.92;100117.03;5093507;28;19927;-42
2023/01/09 04:12:13;;;;;;;;;;;;;;;2.71;75.12;100125.47;5093267;28;20329;-43
2023/01/09 04:14:38;;;;;;;;;;;;;;;2.50;76.15;100118.63;5093189;28;19916;-42
2023/01/09 04:17:04;;;;;;;;;;;;;;;2.67;75.94;100113.59;5093469;28;19987;-42
2023/01/09 04:19:29;;;;;;;;;;;;;;;2.99;74.99;100125.50;5092897;28;19947;-43
2023/01/09 04:21:54;;;;;;;;;;;;;;;2.62;74.75;100121.06;5092916;28;19912;-43
2023/01/09 04:24:20;;;;;;;;;;;;;;;2.44;75.37;100132.31;5092807;28;19912;-43
2023/01/09 04:26:45;;;;;;;;;;;;;;;2.26;77.21;100134.81;5092911;28;19962;-42
2023/01/09 04:29:10;;;;;;;;;;;;;;;2.22;78.28;100138.69;5092457;28;19919;-41
2023/01/09 04:31:35;;;;;;;;;;;;;;;2.46;76.74;100132.19;5091186;28;19912;-42
2023/01/09 04:34:01;;;;;;;;;;;;;;;2.58;74.95;100135.47;5091925;28;19962;-42
2023/01/09 04:36:26;;;;;;;;;;;;;;;2.42;76.04;100131.63;5090961;28;19916;-42
2023/01/09 04:38:51;;;;;;;;;;;;;;;2.42;75.36;100138.66;5091832;28;19912;-42
2023/01/09 04:41:47;;;;;;;;;;;;;;;2.48;75.20;100148.63;5091792;28;20397;-42
2023/01/09 04:44:02;;;;;;;;;;;;;;;2.77;88.03;100147.72;5092151;28;19920;-42
2023/01/09 04:46:28;;;;;;;;;;;;;;;4.01;91.33;100153.44;5092540;28;19916;-43
2023/01/09 04:48:53;;;;;;;;;;;;;;;3.92;74.78;100149.88;5092412;28;19937;-44
2023/01/09 04:51:18;;;;;;;;;;;;;;;3.83;71.56;100148.16;5092519;28;20431;-43
2023/01/09 04:53:43;;;;;;;;;;;;;;;3.11;72.68;100142.75;5092278;28;19919;-43
2023/01/09 04:56:09;;;;;;;;;;;;;;;3.04;73.72;100139.03;5092420;28;19935;-41
2023/01/09 04:58:34;;;;;;;;;;;;;;;3.22;72.50;100142.56;5092084;28;19916;-42
2023/01/09 05:00:59;;;;;;;;;;;;;;;2.87;72.74;100145.88;5092006;28;19995;-43
2023/01/09 05:03:24;;;;;;;;;;;;;;;2.84;73.75;100146.19;5092046;28;20002;-42
2023/01/09 05:05:50;;;;;;;;;;;;;;;2.66;75.02;100141.66;5091801;28;19943;-42
2023/01/09 05:08:15;;;;;;;;;;;;;;;2.60;74.80;100136.16;5092037;28;20021;-42
2023/01/09 05:10:40;;;;;;;;;;;;;;;2.28;75.31;100098.72;5091998;28;20325;-43
2023/01/09 05:13:05;;;;;;;;;;;;;;;2.54;75.07;100134.91;5092127;28;20011;-44
2023/01/09 05:15:31;;;;;;;;;;;;;;;2.34;77.94;100145.47;5091864;28;20354;-43
2023/01/09 05:17:56;;;;;;;;;;;;;;;2.62;75.59;100142.91;5091925;28;19927;-42
2023/01/09 05:20:21;;;;;;;;;;;;;;;2.66;75.50;100144.28;5091796;28;19916;-43
2023/01/09 05:22:46;;;;;;;;;;;;;;;2.83;74.60;100142.72;5091905;28;19916;-43
2023/01/09 05:25:12;;;;;;;;;;;;;;;2.79;75.65;100141.34;5091553;28;20082;-42
2023/01/09 05:27:37;;;;;;;;;;;;;;;2.56;75.01;100135.59;5092007;28;19969;-42
2023/01/09 05:30:03;;;;;;;;;;;;;;;2.53;75.97;100146.38;5091864;28;19991;-42
2023/01/09 05:32:28;;;;;;;;;;;;;;;2.51;76.57;100148.34;5091430;28;20318;-43
2023/01/09 05:34:53;;;;;;;;;;;;;;;3.36;83.23;100149.13;5087050;28;20418;-43
2023/01/09 05:37:18;;;;;;;;;;;;;;;3.47;82.38;100156.00;5089179;28;19972;-43
2023/01/09 05:39:44;;;;;;;;;;;;;;;3.45;74.40;100148.25;5088311;28;19917;-43
2023/01/09 05:42:09;;;;;;;;;;;;;;;3.96;74.28;100147.78;5080560;28;19916;-43
2023/01/09 05:44:34;;;;;;;;;;;;;;;4.00;73.42;100149.97;5090024;28;20007;-42
2023/01/09 05:46:59;;;;;;;;;;;;;;;3.65;72.96;100137.59;5090985;28;19912;-43
2023/01/09 05:49:25;;;;;;;;;;;;;;;3.43;75.75;100146.75;5090339;28;20374;-43
2023/01/09 05:51:50;;;;;;;;;;;;;;;3.40;73.76;100142.59;5090564;28;19931;-43
2023/01/09 05:54:15;;;;;;;;;;;;;;;3.94;74.37;100139.19;5090122;28;19912;-43
2023/01/09 05:56:41;;;;;;;;;;;;;;;4.22;71.85;100138.13;5088192;28;20318;-43
2023/01/09 05:59:06;;;;;;;;;;;;;;;3.95;72.45;100101.38;5088800;28;20017;-41
2023/01/09 06:01:32;;;;;;;;;;;;;;;3.99;72.70;100139.59;5088588;28;19920;-42
2023/01/09 06:03:57;;;;;;;;;;;;;;;3.85;72.84;100140.94;5089095;28;19942;-42
2023/01/09 06:06:23;;;;;;;;;;;;;;;3.80;72.94;100143.19;5089091;28;19966;-43
2023/01/09 06:08:48;;;;;;;;;;;;;;;4.60;71.01;100141.38;5089178;28;20370;-42
2023/01/09 06:11:13;;;;;;;;;;;;;;;4.20;71.42;100140.09;5081609;28;19923;-36
2023/01/09 06:13:39;;;;;;;;;;;;;;;3.56;72.42;100135.84;5085269;28;20452;-43
2023/01/09 06:16:05;;;;;;;;;;;;;;;3.61;73.52;100144.97;5090206;28;20441;-42
2023/01/09 06:18:30;;;;;;;;;;;;;;;3.02;74.62;100139.19;5089958;28;19968;-42
2023/01/09 06:20:56;;;;;;;;;;;;;;;3.81;74.54;100143.03;5089997;28;19916;-43
2023/01/09 06:23:21;;;;;;;;;;;;;;;3.55;73.19;100139.47;5090259;28;20405;-43
2023/01/09 06:25:46;;;;;;;;;;;;;;;3.62;72.59;100140.56;5090484;28;19916;-45
2023/01/09 06:28:11;;;;;;;;;;;;;;;4.05;72.16;100136.34;5089096;28;19919;-43
2023/01/09 06:30:37;;;;;;;;;;;;;;;3.89;71.22;100139.66;5089604;28;19912;-42
2023/01/09 06:33:02;;;;;;;;;;;;;;;4.42;72.36;100145.88;5088522;28;19916;-43
2023/01/09 06:35:27;;;;;;;;;;;;;;;4.16;70.10;100127.38;5088797;28;19912;-43
2023/01/09 06:37:53;;;;;;;;;;;;;;;3.33;73.35;100131.00;5089076;28;19942;-43
2023/01/09 06:40:19;;;;;;;;;;;;;;;4.05;72.29;100133.69;5088742;28;19951;-42
2023/01/09 06:42:45;;;;;;;;;;;;;;;3.82;71.47;100134.16;5088995;28;19912;-43
2023/01/09 06:45:11;;;;;;;;;;;;;;;4.73;70.68;100134.88;5088790;28;20236;-43
2023/01/09 06:47:36;;;;;;;;;;;;;;;4.10;69.79;100128.81;5090585;28;19941;-42
2023/01/09 06:50:02;;;;;;;;;;;;;;;3.39;72.49;100126.97;5090684;28;19913;-42
2023/01/09 06:52:27;;;;;;;;;;;;;;;3.06;75.24;100135.28;5090382;28;19912;-43
2023/01/09 06:54:52;;;;;;;;;;;;;;;3.49;73.54;100125.94;5091659;28;19912;-42
2023/01/09 06:57:18;;;;;;;;;;;;;;;4.07;72.19;100132.59;5094622;28;20345;-43
2023/01/09 06:59:43;;;;;;;;;;;;;;;4.09;70.60;100130.63;5094829;28;20126;-42
2023/01/09 07:02:15;;;;;;;;;;;;;;;3.99;70.69;100136.94;5094542;28;20368;-43
2023/01/09 07:04:41;;;;;;;;;;;;;;;3.95;71.21;100143.50;5094840;28;19916;-43
2023/01/09 07:07:06;;;;;;;;;;;;;;;3.83;71.36;100141.09;5094621;28;20315;-41
2023/01/09 07:09:31;;;;;;;;;;;;;;;4.06;72.51;100138.00;5093414;28;20003;-43
2023/01/09 07:11:56;;;;;;;;;;;;;;;4.46;69.42;100144.56;5094660;28;19912;-42
2023/01/09 07:14:22;;;;;;;;;;;;;;;3.79;73.34;100139.75;5094541;28;20342;-42
2023/01/09 07:16:47;;;;;;;;;;;;;;;3.83;72.54;100135.81;5092459;28;20041;-43
2023/01/09 07:19:12;;;;;;;;;;;;;;;3.76;71.70;100136.56;5093868;28;19930;-43
2023/01/09 07:21:38;;;;;;;;;;;;;;;3.79;71.31;100131.84;5094442;28;19912;-43
2023/01/09 07:24:03;;;;;;;;;;;;;;;4.63;70.84;100127.88;5094003;28;19912;-43
2023/01/09 07:26:28;;;;;;;;;;;;;;;3.99;70.59;100126.41;5094211;28;20073;-43
2023/01/09 07:28:53;;;;;;;;;;;;;;;4.08;71.47;100120.25;5094457;28;19923;-44
2023/01/09 07:31:19;;;;;;;;;;;;;;;4.00;72.08;100117.50;5094018;28;20371;-43
2023/01/09 07:33:44;;;;;;;;;;;;;;;4.12;73.69;100121.59;5094100;28;19927;-43
2023/01/09 07:36:10;;;;;;;;;;;;;;;4.67;71.18;100121.31;5094220;28;20361;-43
2023/01/09 07:38:35;;;;;;;;;;;;;;;4.01;70.63;100125.28;5093799;28;19920;-41
2023/01/09 07:41:01;;;;;;;;;;;;;;;3.18;74.50;100116.69;5094216;28;20326;-42
2023/01/09 07:43:26;;;;;;;;;;;;;;;2.66;77.30;100112.75;5093670;28;19918;-41
2023/01/09 07:45:51;;;;;;;;;;;;;;;2.57;78.71;100111.00;5093340;28;19920;-42
2023/01/09 07:48:17;;;;;;;;;;;;;;;2.86;79.05;100115.34;5094154;28;20385;-42
2023/01/09 07:50:42;;;;;;;;;;;;;;;3.56;77.34;100104.28;5093337;28;20010;-42
2023/01/09 07:53:07;;;;;;;;;;;;;;;3.51;76.65;100108.19;5093602;28;19938;-42
2023/01/09 07:55:32;;;;;;;;;;;;;;;3.39;76.86;100114.66;5093657;28;19923;-42
2023/01/09 07:57:58;;;;;;;;;;;;;;;2.67;79.61;100111.78;5093411;28;19919;-43
2023/01/09 08:00:23;;;;;;;;;;;;;;;2.39;80.82;100107.44;5093208;28;19912;-41
2023/01/09 08:02:52;;;;;;;;;;;;;;;3.08;82.90;100109.66;5093534;28;19919;-42
2023/01/09 08:05:17;;;;;;;;;;;;;;;3.59;77.00;100114.53;5093055;28;19964;-43
2023/01/09 08:07:43;;;;;;;;;;;;;;;3.46;78.50;100114.88;5092089;28;19912;-44
2023/01/09 08:10:09;;;;;;;;;;;;;;;3.48;77.43;100110.28;5093134;28;19912;-44
2023/01/09 08:12:34;;;;;;;;;;;;;;;3.19;79.37;100119.19;5093487;28;20343;-43
2023/01/09 08:15:00;;;;;;;;;;;;;;;3.05;80.04;100112.63;5093187;28;20012;-43
2023/01/09 08:17:25;;;;;;;;;;;;;;;3.63;78.45;100108.78;5093380;28;19916;-41
2023/01/09 08:19:50;;;;;;;;;;;;;;;3.88;77.11;100112.50;5093413;28;19958;-44
2023/01/09 08:22:15;;;;;;;;;;;;;;;3.82;78.07;100110.47;5093351;28;20312;-42
2023/01/09 08:24:41;;;;;;;;;;;;;;;3.58;79.29;100111.06;5092889;28;19974;-42
2023/01/09 08:27:06;;;;;;;;;;;;;;;3.72;78.62;100109.72;5093241;28;19924;-42
2023/01/09 08:29:32;;;;;;;;;;;;;;;3.53;78.44;100105.41;5093509;28;19919;-42
2023/01/09 08:31:57;;;;;;;;;;;;;;;4.63;77.06;100098.06;5092750;28;20384;-42
2023/01/09 08:34:22;;;;;;;;;;;;;;;4.01;77.31;100098.94;5092569;28;19912;-41
2023/01/09 08:36:48;;;;;;;;;;;;;;;3.78;78.48;100100.38;5093038;28;19922;-43
2023/01/09 08:39:13;;;;;;;;;;;;;;;3.77;78.56;100088.19;5093074;28;19916;-43
2023/01/09 08:47:06;;;;;;;;;;;;;;;5.10;74.55;100094.97;5092489;28;19919;-42
2023/01/09 08:49:32;;;;;;;;;;;;;;;5.03;74.32;100094.78;5091124;28;19912;-42
2023/01/09 08:51:57;;;;;;;;;;;;;;;4.88;75.65;100099.00;5092504;28;19912;-42
2023/01/09 08:54:22;;;;;;;;;;;;;;;4.79;76.85;100090.22;5092923;28;19916;-42
2023/01/09 08:56:48;;;;;;;;;;;;;;;4.59;77.11;100096.69;5092334;28;19912;-43
2023/01/09 08:59:14;;;;;;;;;;;;;;;5.55;74.81;100095.59;5092705;28;19968;-43
2023/01/09 09:01:39;;;;;;;;;;;;;;;5.16;74.88;100090.88;5092819;28;19916;-42
2023/01/09 09:04:04;;;;;;;;;;;;;;;4.66;75.76;100088.03;5092114;28;20364;-41
2023/01/09 09:06:30;;;;;;;;;;;;;;;5.01;74.68;100082.75;5092292;28;19916;-41
2023/01/09 09:08:56;;;;;;;;;;;;;;;4.66;76.53;100076.66;5092068;28;19912;-42
2023/01/09 09:11:21;;;;;;;;;;;;;;;5.52;75.27;100085.34;5092337;28;20004;-42
2023/01/09 09:13:46;;;;;;;;;;;;;;;5.63;71.98;100077.13;5092316;28;19956;-41
2023/01/09 09:16:11;;;;;;;;;;;;;;;5.62;72.41;100078.94;5092390;28;19961;-42
2023/01/09 09:18:37;;;;;;;;;;;;;;;5.51;72.63;100084.53;5092121;28;19920;-43
2023/01/09 09:21:02;;;;;;;;;;;;;;;5.44;75.74;100083.53;5092303;28;20028;-41
2023/01/09 09:23:27;;;;;;;;;;;;;;;5.49;74.69;100081.22;5092306;28;19912;-41
2023/01/09 09:25:53;;;;;;;;;;;;;;;6.35;71.14;100064.09;5092119;28;19916;-43
2023/01/09 09:28:18;;;;;;;;;;;;;;;5.54;73.49;100072.81;5091795;28;19920;-42
2023/01/09 09:30:43;;;;;;;;;;;;;;;5.34;74.89;100075.75;5091678;28;19999;-42
2023/01/09 09:33:09;;;;;;;;;;;;;;;5.58;74.28;100071.50;5092279;28;19969;-43
2023/01/09 09:35:34;;;;;;;;;;;;;;;5.50;74.50;100067.03;5092005;28;19955;-41
2023/01/09 09:38:01;;;;;;;;;;;;;;;6.05;72.05;100053.25;5092095;28;19951;-42
2023/01/09 09:40:49;;;;;;;;;;;;;;;6.19;72.31;100059.66;5091798;28;20029;-42
2023/01/09 09:46:14;;;;;;;;;;;;;;;6.37;72.75;100042.78;5091618;28;19924;-41
2023/01/09 09:48:47;;;;;;;;;;;;;;;6.33;72.66;100052.06;5091743;28;19912;-42
2023/01/09 09:51:34;;;;;;;;;;;;;;;7.20;69.13;100052.06;5091442;28;19912;-42
2023/01/09 09:54:02;;;;;;;;;;;;;;;6.57;71.50;100048.53;5091307;28;20097;-42
2023/01/09 09:56:31;;;;;;;;;;;;;;;6.51;72.09;100051.84;5092044;28;19938;-43
2023/01/09 09:59:00;;;;;;;;;;;;;;;6.17;72.98;100040.50;5091330;28;20232;-42
2023/01/09 10:01:43;;;;;;;;;;;;;;;6.05;74.87;100049.75;5091577;28;19919;-42
2023/01/09 10:04:14;;;;;;;;;;;;;;;7.07;71.31;100033.28;5091582;28;19916;-42
2023/01/09 10:06:43;;;;;;;;;;;;;;;6.73;70.15;100032.59;5091215;28;19916;-42
2023/01/09 10:09:27;;;;;;;;;;;;;;;6.49;71.61;100032.66;5090857;28;19912;-40
2023/01/09 10:12:00;;;;;;;;;;;;;;;6.37;72.61;100034.84;5091282;28;20376;-43
2023/01/09 10:14:26;;;;;;;;;;;;;;;5.78;74.95;100030.59;5090967;28;19961;-42
2023/01/09 10:17:04;;;;;;;;;;;;;;;6.23;75.77;100026.63;5090965;28;19912;-42
2023/01/09 10:19:30;;;;;;;;;;;;;;;6.41;73.10;100022.94;5090735;28;19969;-44
2023/01/09 10:22:10;;;;;;;;;;;;;;;6.12;74.87;100024.31;5091062;28;19965;-43
2023/01/09 10:24:41;;;;;;;;;;;;;;;6.28;74.55;100017.34;5091075;28;19916;-42
2023/01/09 10:27:22;;;;;;;;;;;;;;;5.74;76.14;100016.06;5091177;28;19916;-42
2023/01/09 10:29:47;;;;;;;;;;;;;;;5.66;77.74;100008.97;5090401;28;19912;-42
2023/01/09 10:32:12;;;;;;;;;;;;;;;5.79;77.22;100005.84;5090936;28;19920;-42
2023/01/09 10:34:38;;;;;;;;;;;;;;;5.61;77.57;100008.63;5091074;28;20352;-42
2023/01/09 10:37:16;;;;;;;;;;;;;;;6.00;76.50;99999.25;5091103;28;19966;-42
2023/01/09 10:39:41;;;;;;;;;;;;;;;5.83;76.80;100001.06;5090735;28;19934;-42
2023/01/09 10:42:11;;;;;;;;;;;;;;;5.80;77.06;100001.38;5090783;28;20026;-42
2023/01/09 10:44:44;;;;;;;;;;;;;;;5.59;77.91;99999.25;5090420;28;19912;-42
2023/01/09 10:47:14;;;;;;;;;;;;;;;5.63;79.36;99997.91;5090647;28;19916;-43
2023/01/09 10:49:40;;;;;;;;;;;;;;;5.59;79.06;99993.97;5091018;28;20000;-42
2023/01/09 10:52:08;;;;;;;;;;;;;;;5.84;78.44;99990.31;5090718;28;20311;-44
2023/01/09 10:54:34;;;;;;;;;;;;;;;6.30;76.52;99984.47;5091259;28;20009;-42
2023/01/09 10:57:15;;;;;;;;;;;;;;;6.21;76.42;99983.69;5090827;28;20437;-42
2023/01/09 10:59:40;;;;;;;;;;;;;;;5.93;78.38;99985.03;5090574;28;19916;-42
2023/01/09 11:02:20;;;;;;;;;;;;;;;5.93;78.04;99980.56;5090666;28;19940;-41
2023/01/09 11:04:45;;;;;;;;;;;;;;;5.61;79.63;99984.06;5090484;28;19920;-41
2023/01/09 11:07:22;;;;;;;;;;;;;;;5.59;80.24;99986.84;5090533;28;20015;-42
2023/01/09 11:09:54;;;;;;;;;;;;;;;5.51;81.10;99976.31;5090614;28;19912;-42
2023/01/09 11:12:26;;;;;;;;;;;;;;;5.66;80.72;99982.56;5090494;28;19912;-42
2023/01/09 11:14:51;;;;;;;;;;;;;;;5.63;80.54;99982.88;5089601;28;19912;-42
2023/01/09 11:17:21;;;;;;;;;;;;;;;5.80;80.18;99978.44;5090237;28;19963;-42
2023/01/09 11:20:03;;;;;;;;;;;;;;;5.91;80.22;99973.81;5090151;28;19973;-42
2023/01/09 11:22:40;;;;;;;;;;;;;;;5.91;80.80;99971.16;5089914;28;19919;-43
2023/01/09 11:25:10;;;;;;;;;;;;;;;5.77;82.30;99960.28;5089878;28;19923;-43
2023/01/09 11:27:35;;;;;;;;;;;;;;;6.11;81.83;99963.72;5090485;28;20007;-42
2023/01/09 11:30:16;;;;;;;;;;;;;;;6.15;81.47;99957.09;5089869;28;19916;-43
2023/01/09 11:32:43;;;;;;;;;;;;;;;5.87;82.33;99955.66;5089708;28;19912;-43
2023/01/09 11:35:23;;;;;;;;;;;;;;;6.16;83.48;99949.00;5090084;28;19918;-42
2023/01/09 11:37:56;;;;;;;;;;;;;;;6.16;82.76;99937.63;5089763;28;19912;-42
2023/01/09 11:40:22;;;;;;;;;;;;;;;5.85;84.20;99933.03;5089987;28;19916;-42
2023/01/09 11:43:00;;;;;;;;;;;;;;;5.99;82.54;99932.38;5093779;28;19961;-42
2023/01/09 11:45:29;;;;;;;;;;;;;;;6.24;82.42;99927.00;5093493;28;19916;-43
2023/01/09 11:47:54;;;;;;;;;;;;;;;5.97;83.00;99915.84;5093784;28;19991;-43
2023/01/09 11:50:21;;;;;;;;;;;;;;;6.19;82.47;99902.94;5093745;28;20011;-43
2023/01/09 11:53:05;;;;;;;;;;;;;;;6.31;83.06;99898.91;5094038;28;19912;-43
2023/01/09 11:55:31;;;;;;;;;;;;;;;6.59;81.47;99893.97;5093623;28;19993;-43
2023/01/09 11:57:56;;;;;;;;;;;;;;;7.23;78.03;99895.53;5093317;28;19911;-42
2023/01/09 12:00:26;;;;;;;;;;;;;;;7.02;79.06;99885.59;5093798;28;19924;-41
2023/01/09 12:02:51;;;;;;;;;;;;;;;6.72;79.78;99882.84;5093615;28;20326;-42
2023/01/09 12:05:30;;;;;;;;;;;;;;;6.64;79.29;99873.13;5093561;28;20007;-43
2023/01/09 12:08:04;;;;;;;;;;;;;;;6.86;79.43;99873.31;5093961;28;20387;-43
2023/01/09 12:10:30;;;;;;;;;;;;;;;7.05;78.32;99864.91;5093570;28;20292;-42
2023/01/09 12:13:14;;;;;;;;;;;;;;;6.19;79.75;99832.41;5093742;28;19919;-42
2023/01/09 12:15:54;;;;;;;;;;;;;;;6.51;79.98;99869.41;5093874;28;19919;-42
2023/01/09 12:18:34;;;;;;;;;;;;;;;6.15;81.92;99862.81;5093631;28;19920;-45
2023/01/09 12:21:12;;;;;;;;;;;;;;;6.59;81.24;99870.19;5093648;28;19920;-43
2023/01/09 12:23:47;;;;;;;;;;;;;;;5.88;82.41;99871.94;5093494;28;19915;-42
2023/01/09 12:26:15;;;;;;;;;;;;;;;6.00;82.67;99865.34;5093316;28;19999;-43
2023/01/09 12:28:44;;;;;;;;;;;;;;;5.84;82.99;99855.59;5093618;28;19923;-42
2023/01/09 12:31:28;;;;;;;;;;;;;;;5.85;83.35;99851.16;5093208;28;19919;-42
2023/01/09 12:34:02;;;;;;;;;;;;;;;6.61;81.78;99847.03;5093273;28;19934;-42
2023/01/09 12:36:30;;;;;;;;;;;;;;;6.49;80.54;99837.84;5092964;28;19913;-42
2023/01/09 12:39:14;;;;;;;;;;;;;;;6.50;79.80;99839.50;5092999;28;19912;-41
2023/01/09 12:42:02;;;;;;;;;;;;;;;6.55;80.11;99837.16;5093061;28;20007;-42
2023/01/09 12:44:47;;;;;;;;;;;;;;;6.26;84.10;99837.78;5082490;28;20002;-41
2023/01/09 12:47:24;;;;;;;;;;;;;;;6.89;79.32;99832.44;5093018;28;20383;-42
2023/01/09 12:49:49;;;;;;;;;;;;;;;6.99;78.34;99833.88;5093101;28;19912;-42
2023/01/09 12:52:19;;;;;;;;;;;;;;;6.71;79.00;99825.63;5091909;28;19912;-42
2023/01/09 12:54:53;;;;;;;;;;;;;;;6.50;80.35;99812.25;5092737;28;20383;-42
2023/01/09 12:57:36;;;;;;;;;;;;;;;6.08;82.11;99809.00;5093082;28;19912;-43
2023/01/09 13:00:04;;;;;;;;;;;;;;;5.93;83.20;99813.34;5092741;28;20457;-43
2023/01/09 13:02:35;;;;;;;;;;;;;;;5.79;83.08;99815.69;5092867;28;20286;-42
2023/01/09 13:05:14;;;;;;;;;;;;;;;5.75;84.07;99816.19;5092429;28;20012;-41